Briefing drone pour Guerigny

Rechercher une autre localisation

Conditions de vol :


Nous sommes le : Jeudi 27 janvier 2022
Il est 21:24 UTC (22:24 LT)

Lever de soleil : 06:51 UTC (07:51 LT)
Coucher de soleil : 17:07 UTC (18:07 LT)

Météo

L'essentiel des conditions de vol

VIGILANCE MÉTÉO FRANCE - Nièvre (58)
Vigilance Jaune : Neige-verglas
METAR de LFQG
LFQG 271800Z AUTO 16006KT 6000 BKN005 OVC019 M00/M01 Q1034

Date d'émission: 27/01/2022
Heure d'émission: 18:00 UTC
Vent: 160° pour 6 KT (11 km/h)
Visibilité horizontale: 6000 m
Plafond :
- Nuages morcelés à 500ft (152m)
- Couvert à 1900ft (579m)
Température: 0 °C
Point de rosée: -1 °C
Humidité: 93%
Pression (QNH): 1034 hPa
Prévision 24h pour Nevers (7 km)
Vent : 0° pour 1 KT (4 km/h)
Temperature Maxi: 1 °C
Temperature Min: 1 °C
Humidité : 92%
Condition : Partiellement nuageux



Warning: count(): Parameter must be an array or an object that implements Countable in /homepages/6/d509196549/htdocs/droneoxygene/briefing.php on line 743
WEBCAM POUR GUERIGNY

Réglementation

Voler en sécurité

CARTES AERONAUTIQUE 1/500.000
CARTES VAC (LFQG)
SUP AIP




Chargement des AIP...
NOTAM (GUERIGNY + Terrain à proximité / FIR )




Chargement des NOTAMS...
CONTACT PREFECTURE 58


Avertissement : Les données mises à disposition sont indicatives. Oxygène Drone ne pourra être tenu responsable de dégâts causés aux biens et aux personnes.